Aérodrome :
LOGIN :

S'inscrire | Disclaimer

   EN    FR    IT 

 










Légende :    VFR   VFR Marginal   IFR   IFR Intensif   IFR Très Intensif
Visi : 
Plafond : 
>= 8 km
>= 3000ft
5 à 8 km
1000 à 3000 ft
1500m à 5 km
500 à 1000 ft
800 à 1500m
200 à 500 ft
< 800m
< 200 ft
Symboles :   Orages  Brouillard  Fortes neiges  Fortes précipitations  Vent > 20 kt
SIGMETs :   Divers  Orages  Givrage  Turbulence  Onde Orograph.  Cendres Volcan.







- Altitude de l'aérodrome : 529 ft
- Code IATA : CHR
- Voir les cartes d'approche


LFLX - Chateauroux

DERNIER METAR :
  • 261030Z AUTO 29009KT 220V320 9999 SCT037 BKN066 20/10 Q1019 NOSIG

METARs EXPIRÉS :
  • 261000Z AUTO 31009KT 270V330 9999 SCT032 SCT045 OVC066 18/12 Q1019 NOSIG
  • 260930Z AUTO 30007KT 9999 SCT025 SCT036 BKN054 18/11 Q1019 NOSIG
  • 260900Z AUTO VRB04KT 9999 BKN023 BKN029 BKN064 19/13 Q1020 NOSIG
  • 260830Z AUTO 31004KT 260V360 9999 FEW018 SCT120 18/12 Q1020 NOSIG
  • 260800Z AUTO 29005KT 260V010 9999 SCT016 BKN060 BKN110 17/13 Q1020 NOSIG

TAF TAF LFLX
Valide du 26 à 06h jusqu'au 27 à 12h UTC


260500Z 2606/2712 32007KT CAVOK
PROB40
TEMPO 2606/2608 2000 BR VV///
TEMPO 2704/2712 4000 -RA OVC012
PROB30
TEMPO 2706/2712 2500 -RADZ OVC006
Pas de NOTAMs connus pour ce terrain.



MET'MAP, la Météo Aéronautique d'un coup d'oeil ! - Copyright ORBIFLY Décembre 2007 - Disclaimer

ORBIFLY MET'MAP TEAM :

Programmation & Développement : Alexandra Zaïnal
Conception & Développement : Baudouin d'Aumeries
Co-Programmation & Développement : Marc-Olivier Méhu
Soutien technique & logistique : Manuel Goepfert

Contact : metmap@orbifly.com




SOURCES & CREDITS :

   NOAA